sensor_id;sensor_type;location;lat;lon;timestamp;P1;durP1;ratioP1;P2;durP2;ratioP2
20956;SDS011;10637;47.970;7.830;2023-06-10T00:03:11;12.23;;;6.67;;
20956;SDS011;10637;47.970;7.830;2023-06-10T00:08:16;13.23;;;6.70;;
20956;SDS011;10637;47.970;7.830;2023-06-10T00:13:20;11.20;;;6.37;;
20956;SDS011;10637;47.970;7.830;2023-06-10T00:18:22;16.37;;;6.87;;
20956;SDS011;10637;47.970;7.830;2023-06-10T00:23:24;11.30;;;6.90;;
20956;SDS011;10637;47.970;7.830;2023-06-10T00:28:26;12.20;;;6.93;;
20956;SDS011;10637;47.970;7.830;2023-06-10T00:33:28;11.37;;;6.53;;
20956;SDS011;10637;47.970;7.830;2023-06-10T00:38:31;14.43;;;7.33;;
20956;SDS011;10637;47.970;7.830;2023-06-10T00:43:33;10.87;;;6.97;;
20956;SDS011;10637;47.970;7.830;2023-06-10T00:48:35;11.53;;;6.93;;
20956;SDS011;10637;47.970;7.830;2023-06-10T00:53:40;13.17;;;7.50;;
20956;SDS011;10637;47.970;7.830;2023-06-10T00:58:43;12.83;;;7.20;;
20956;SDS011;10637;47.970;7.830;2023-06-10T01:03:45;11.80;;;6.80;;
20956;SDS011;10637;47.970;7.830;2023-06-10T01:14:31;10.60;;;6.87;;
20956;SDS011;10637;47.970;7.830;2023-06-10T01:19:33;12.47;;;7.37;;
20956;SDS011;10637;47.970;7.830;2023-06-10T01:24:37;11.70;;;7.20;;
20956;SDS011;10637;47.970;7.830;2023-06-10T01:29:43;13.33;;;7.50;;
20956;SDS011;10637;47.970;7.830;2023-06-10T01:34:47;12.67;;;7.70;;
20956;SDS011;10637;47.970;7.830;2023-06-10T01:39:54;10.57;;;7.13;;
20956;SDS011;10637;47.970;7.830;2023-06-10T01:44:58;11.37;;;7.10;;
20956;SDS011;10637;47.970;7.830;2023-06-10T01:50:00;11.83;;;7.57;;
20956;SDS011;10637;47.970;7.830;2023-06-10T01:55:04;12.50;;;7.00;;
20956;SDS011;10637;47.970;7.830;2023-06-10T02:00:06;12.57;;;7.30;;
20956;SDS011;10637;47.970;7.830;2023-06-10T02:05:09;13.23;;;7.60;;
20956;SDS011;10637;47.970;7.830;2023-06-10T02:10:11;11.57;;;7.90;;
20956;SDS011;10637;47.970;7.830;2023-06-10T02:15:13;12.30;;;7.43;;
20956;SDS011;10637;47.970;7.830;2023-06-10T02:20:16;11.63;;;7.30;;
20956;SDS011;10637;47.970;7.830;2023-06-10T02:25:18;11.30;;;7.13;;
20956;SDS011;10637;47.970;7.830;2023-06-10T02:30:23;11.13;;;7.03;;
20956;SDS011;10637;47.970;7.830;2023-06-10T02:35:25;13.37;;;7.80;;
20956;SDS011;10637;47.970;7.830;2023-06-10T02:40:27;10.97;;;7.13;;
20956;SDS011;10637;47.970;7.830;2023-06-10T02:45:29;13.33;;;7.70;;
20956;SDS011;10637;47.970;7.830;2023-06-10T02:50:30;11.90;;;8.00;;
20956;SDS011;10637;47.970;7.830;2023-06-10T02:55:32;11.97;;;7.87;;
20956;SDS011;10637;47.970;7.830;2023-06-10T03:00:41;11.57;;;8.10;;
20956;SDS011;10637;47.970;7.830;2023-06-10T03:05:44;14.20;;;7.50;;
20956;SDS011;10637;47.970;7.830;2023-06-10T03:10:46;13.70;;;8.50;;
20956;SDS011;10637;47.970;7.830;2023-06-10T03:15:48;14.07;;;8.57;;
20956;SDS011;10637;47.970;7.830;2023-06-10T03:20:50;14.17;;;8.57;;
20956;SDS011;10637;47.970;7.830;2023-06-10T03:25:52;13.43;;;8.90;;
20956;SDS011;10637;47.970;7.830;2023-06-10T03:30:56;12.80;;;8.47;;
20956;SDS011;10637;47.970;7.830;2023-06-10T03:36:07;12.23;;;8.10;;
20956;SDS011;10637;47.970;7.830;2023-06-10T03:41:08;15.63;;;8.50;;
20956;SDS011;10637;47.970;7.830;2023-06-10T03:46:11;12.90;;;8.20;;
20956;SDS011;10637;47.970;7.830;2023-06-10T03:51:15;15.60;;;8.50;;
20956;SDS011;10637;47.970;7.830;2023-06-10T03:56:17;11.93;;;8.17;;
20956;SDS011;10637;47.970;7.830;2023-06-10T04:01:19;12.80;;;8.60;;
20956;SDS011;10637;47.970;7.830;2023-06-10T04:06:22;12.83;;;8.70;;
20956;SDS011;10637;47.970;7.830;2023-06-10T04:11:26;12.73;;;8.23;;
20956;SDS011;10637;47.970;7.830;2023-06-10T04:16:28;13.47;;;8.33;;
20956;SDS011;10637;47.970;7.830;2023-06-10T04:21:30;12.67;;;8.23;;
20956;SDS011;10637;47.970;7.830;2023-06-10T04:26:31;13.43;;;8.30;;
20956;SDS011;10637;47.970;7.830;2023-06-10T04:31:35;14.50;;;8.50;;
20956;SDS011;10637;47.970;7.830;2023-06-10T04:36:39;12.00;;;8.47;;
20956;SDS011;10637;47.970;7.830;2023-06-10T04:41:40;11.90;;;8.07;;
20956;SDS011;10637;47.970;7.830;2023-06-10T04:46:42;13.97;;;8.40;;
20956;SDS011;10637;47.970;7.830;2023-06-10T04:51:44;12.43;;;8.97;;
20956;SDS011;10637;47.970;7.830;2023-06-10T04:56:46;13.03;;;8.37;;
20956;SDS011;10637;47.970;7.830;2023-06-10T05:01:48;14.83;;;8.60;;
20956;SDS011;10637;47.970;7.830;2023-06-10T05:06:50;12.63;;;8.70;;
20956;SDS011;10637;47.970;7.830;2023-06-10T05:11:57;13.83;;;8.47;;
20956;SDS011;10637;47.970;7.830;2023-06-10T05:16:59;12.50;;;7.83;;
20956;SDS011;10637;47.970;7.830;2023-06-10T05:22:01;13.23;;;8.87;;
20956;SDS011;10637;47.970;7.830;2023-06-10T05:27:03;12.87;;;8.60;;
20956;SDS011;10637;47.970;7.830;2023-06-10T05:32:06;13.97;;;8.50;;
20956;SDS011;10637;47.970;7.830;2023-06-10T05:37:17;17.73;;;8.40;;
20956;SDS011;10637;47.970;7.830;2023-06-10T05:42:19;12.67;;;8.50;;
20956;SDS011;10637;47.970;7.830;2023-06-10T05:47:21;12.47;;;8.27;;
20956;SDS011;10637;47.970;7.830;2023-06-10T05:52:23;12.10;;;8.20;;
20956;SDS011;10637;47.970;7.830;2023-06-10T05:57:27;12.13;;;7.90;;
20956;SDS011;10637;47.970;7.830;2023-06-10T06:02:29;15.13;;;8.43;;
20956;SDS011;10637;47.970;7.830;2023-06-10T06:07:31;12.53;;;8.03;;
20956;SDS011;10637;47.970;7.830;2023-06-10T06:12:33;13.63;;;8.17;;
20956;SDS011;10637;47.970;7.830;2023-06-10T06:17:36;12.60;;;8.17;;
20956;SDS011;10637;47.970;7.830;2023-06-10T06:22:38;12.67;;;7.77;;
20956;SDS011;10637;47.970;7.830;2023-06-10T06:27:40;13.70;;;8.43;;
20956;SDS011;10637;47.970;7.830;2023-06-10T06:32:42;12.53;;;7.67;;
20956;SDS011;10637;47.970;7.830;2023-06-10T06:37:46;12.47;;;8.33;;
20956;SDS011;10637;47.970;7.830;2023-06-10T06:42:50;13.93;;;8.20;;
20956;SDS011;10637;47.970;7.830;2023-06-10T06:47:52;13.40;;;7.67;;
20956;SDS011;10637;47.970;7.830;2023-06-10T06:52:54;12.40;;;7.70;;
20956;SDS011;10637;47.970;7.830;2023-06-10T06:57:56;12.10;;;7.03;;
20956;SDS011;10637;47.970;7.830;2023-06-10T07:02:58;12.10;;;7.17;;
20956;SDS011;10637;47.970;7.830;2023-06-10T07:08:00;12.93;;;7.30;;
20956;SDS011;10637;47.970;7.830;2023-06-10T07:13:02;14.80;;;7.57;;
20956;SDS011;10637;47.970;7.830;2023-06-10T07:18:14;11.77;;;7.70;;
20956;SDS011;10637;47.970;7.830;2023-06-10T07:23:16;13.67;;;7.47;;
20956;SDS011;10637;47.970;7.830;2023-06-10T07:28:25;11.53;;;7.40;;
20956;SDS011;10637;47.970;7.830;2023-06-10T07:33:27;13.13;;;7.60;;
20956;SDS011;10637;47.970;7.830;2023-06-10T07:38:30;12.43;;;7.30;;
20956;SDS011;10637;47.970;7.830;2023-06-10T07:43:32;13.43;;;7.57;;
20956;SDS011;10637;47.970;7.830;2023-06-10T07:48:33;12.87;;;8.27;;
20956;SDS011;10637;47.970;7.830;2023-06-10T07:53:35;13.70;;;7.37;;
20956;SDS011;10637;47.970;7.830;2023-06-10T07:58:39;11.67;;;6.90;;
20956;SDS011;10637;47.970;7.830;2023-06-10T08:03:42;11.70;;;7.30;;
20956;SDS011;10637;47.970;7.830;2023-06-10T08:08:44;11.13;;;6.87;;
20956;SDS011;10637;47.970;7.830;2023-06-10T08:13:47;14.87;;;7.97;;
20956;SDS011;10637;47.970;7.830;2023-06-10T08:18:48;12.20;;;7.33;;
20956;SDS011;10637;47.970;7.830;2023-06-10T08:23:55;11.30;;;6.83;;
20956;SDS011;10637;47.970;7.830;2023-06-10T08:28:57;14.37;;;7.70;;
20956;SDS011;10637;47.970;7.830;2023-06-10T08:33:59;11.07;;;7.00;;
20956;SDS011;10637;47.970;7.830;2023-06-10T08:39:01;13.87;;;8.30;;
20956;SDS011;10637;47.970;7.830;2023-06-10T08:44:06;12.77;;;7.80;;
20956;SDS011;10637;47.970;7.830;2023-06-10T08:49:23;15.43;;;7.60;;
20956;SDS011;10637;47.970;7.830;2023-06-10T08:54:30;13.37;;;7.73;;
20956;SDS011;10637;47.970;7.830;2023-06-10T08:59:34;12.37;;;7.37;;
20956;SDS011;10637;47.970;7.830;2023-06-10T09:04:36;12.93;;;7.53;;
20956;SDS011;10637;47.970;7.830;2023-06-10T09:09:38;18.13;;;7.80;;
20956;SDS011;10637;47.970;7.830;2023-06-10T09:14:41;11.80;;;7.87;;
20956;SDS011;10637;47.970;7.830;2023-06-10T09:19:44;10.90;;;7.43;;
20956;SDS011;10637;47.970;7.830;2023-06-10T09:24:46;12.10;;;7.97;;
20956;SDS011;10637;47.970;7.830;2023-06-10T09:29:53;12.47;;;7.53;;
20956;SDS011;10637;47.970;7.830;2023-06-10T09:34:55;13.57;;;7.90;;
20956;SDS011;10637;47.970;7.830;2023-06-10T09:40:04;13.50;;;7.80;;
20956;SDS011;10637;47.970;7.830;2023-06-10T09:45:08;13.50;;;8.37;;
20956;SDS011;10637;47.970;7.830;2023-06-10T09:50:09;13.93;;;8.53;;
20956;SDS011;10637;47.970;7.830;2023-06-10T09:55:11;13.23;;;7.83;;
20956;SDS011;10637;47.970;7.830;2023-06-10T10:00:15;11.93;;;7.05;;
20956;SDS011;10637;47.970;7.830;2023-06-10T10:05:18;12.73;;;7.82;;
20956;SDS011;10637;47.970;7.830;2023-06-10T10:10:23;13.38;;;7.90;;
20956;SDS011;10637;47.970;7.830;2023-06-10T10:15:25;13.07;;;8.50;;
20956;SDS011;10637;47.970;7.830;2023-06-10T10:20:32;12.77;;;8.38;;
20956;SDS011;10637;47.970;7.830;2023-06-10T10:25:38;11.65;;;8.23;;
20956;SDS011;10637;47.970;7.830;2023-06-10T10:30:42;13.75;;;7.97;;
20956;SDS011;10637;47.970;7.830;2023-06-10T10:35:52;13.38;;;8.60;;
20956;SDS011;10637;47.970;7.830;2023-06-10T10:40:55;12.18;;;8.80;;
20956;SDS011;10637;47.970;7.830;2023-06-10T10:46:12;13.25;;;9.18;;
20956;SDS011;10637;47.970;7.830;2023-06-10T10:51:15;15.25;;;8.88;;
20956;SDS011;10637;47.970;7.830;2023-06-10T10:56:24;14.95;;;8.05;;
20956;SDS011;10637;47.970;7.830;2023-06-10T11:01:41;12.38;;;8.52;;
20956;SDS011;10637;47.970;7.830;2023-06-10T11:06:54;19.30;;;9.00;;
20956;SDS011;10637;47.970;7.830;2023-06-10T11:12:06;12.07;;;8.50;;
20956;SDS011;10637;47.970;7.830;2023-06-10T11:17:18;13.05;;;9.00;;
20956;SDS011;10637;47.970;7.830;2023-06-10T11:22:20;12.98;;;8.70;;
20956;SDS011;10637;47.970;7.830;2023-06-10T11:27:23;14.30;;;9.18;;
20956;SDS011;10637;47.970;7.830;2023-06-10T11:32:37;13.30;;;8.65;;
20956;SDS011;10637;47.970;7.830;2023-06-10T11:37:40;13.13;;;8.43;;
20956;SDS011;10637;47.970;7.830;2023-06-10T11:42:42;13.93;;;8.75;;
20956;SDS011;10637;47.970;7.830;2023-06-10T11:47:57;12.15;;;7.68;;
20956;SDS011;10637;47.970;7.830;2023-06-10T11:53:02;13.13;;;7.93;;
20956;SDS011;10637;47.970;7.830;2023-06-10T11:58:04;11.52;;;7.90;;
20956;SDS011;10637;47.970;7.830;2023-06-10T12:03:12;12.63;;;7.53;;
20956;SDS011;10637;47.970;7.830;2023-06-10T12:08:15;12.35;;;7.68;;
20956;SDS011;10637;47.970;7.830;2023-06-10T12:13:16;12.27;;;7.97;;
20956;SDS011;10637;47.970;7.830;2023-06-10T12:18:24;12.50;;;7.82;;
20956;SDS011;10637;47.970;7.830;2023-06-10T12:23:26;13.20;;;7.50;;
20956;SDS011;10637;47.970;7.830;2023-06-10T12:28:27;13.13;;;8.02;;
20956;SDS011;10637;47.970;7.830;2023-06-10T12:33:29;12.00;;;7.93;;
20956;SDS011;10637;47.970;7.830;2023-06-10T12:38:31;11.02;;;7.40;;
20956;SDS011;10637;47.970;7.830;2023-06-10T12:43:36;11.55;;;7.43;;
20956;SDS011;10637;47.970;7.830;2023-06-10T12:48:49;11.20;;;7.53;;
20956;SDS011;10637;47.970;7.830;2023-06-10T12:53:53;11.05;;;7.30;;
20956;SDS011;10637;47.970;7.830;2023-06-10T12:58:54;15.00;;;8.10;;
20956;SDS011;10637;47.970;7.830;2023-06-10T13:03:56;13.30;;;8.63;;
20956;SDS011;10637;47.970;7.830;2023-06-10T13:08:58;17.08;;;9.60;;
20956;SDS011;10637;47.970;7.830;2023-06-10T13:14:00;18.07;;;10.57;;
20956;SDS011;10637;47.970;7.830;2023-06-10T13:19:04;17.73;;;10.20;;
20956;SDS011;10637;47.970;7.830;2023-06-10T13:24:06;14.37;;;10.10;;
20956;SDS011;10637;47.970;7.830;2023-06-10T13:29:11;16.57;;;10.77;;
20956;SDS011;10637;47.970;7.830;2023-06-10T13:34:15;16.67;;;10.40;;
20956;SDS011;10637;47.970;7.830;2023-06-10T13:39:17;16.40;;;10.10;;
20956;SDS011;10637;47.970;7.830;2023-06-10T13:44:19;11.95;;;8.27;;
20956;SDS011;10637;47.970;7.830;2023-06-10T13:49:21;12.48;;;8.20;;
20956;SDS011;10637;47.970;7.830;2023-06-10T13:54:23;13.43;;;7.63;;
20956;SDS011;10637;47.970;7.830;2023-06-10T13:59:25;14.88;;;7.85;;
20956;SDS011;10637;47.970;7.830;2023-06-10T14:04:27;12.25;;;7.22;;
20956;SDS011;10637;47.970;7.830;2023-06-10T14:09:29;11.88;;;7.32;;
20956;SDS011;10637;47.970;7.830;2023-06-10T14:14:31;11.10;;;6.40;;
20956;SDS011;10637;47.970;7.830;2023-06-10T14:19:34;10.80;;;6.82;;
20956;SDS011;10637;47.970;7.830;2023-06-10T14:24:36;14.52;;;6.88;;
20956;SDS011;10637;47.970;7.830;2023-06-10T14:29:38;10.23;;;6.15;;
20956;SDS011;10637;47.970;7.830;2023-06-10T14:34:44;13.00;;;6.78;;
20956;SDS011;10637;47.970;7.830;2023-06-10T14:39:48;10.70;;;6.25;;
20956;SDS011;10637;47.970;7.830;2023-06-10T14:44:50;10.00;;;6.53;;
20956;SDS011;10637;47.970;7.830;2023-06-10T14:49:52;10.52;;;6.15;;
20956;SDS011;10637;47.970;7.830;2023-06-10T14:54:54;9.95;;;5.63;;
20956;SDS011;10637;47.970;7.830;2023-06-10T14:59:56;8.85;;;5.38;;
20956;SDS011;10637;47.970;7.830;2023-06-10T15:04:58;9.88;;;6.15;;
20956;SDS011;10637;47.970;7.830;2023-06-10T15:10:00;9.45;;;6.00;;
20956;SDS011;10637;47.970;7.830;2023-06-10T15:15:09;10.70;;;6.05;;
20956;SDS011;10637;47.970;7.830;2023-06-10T15:20:12;9.70;;;5.65;;
20956;SDS011;10637;47.970;7.830;2023-06-10T15:25:14;9.93;;;6.45;;
20956;SDS011;10637;47.970;7.830;2023-06-10T15:30:31;9.75;;;5.28;;
20956;SDS011;10637;47.970;7.830;2023-06-10T15:35:33;8.57;;;4.90;;
20956;SDS011;10637;47.970;7.830;2023-06-10T15:40:35;10.27;;;5.38;;
20956;SDS011;10637;47.970;7.830;2023-06-10T15:45:37;10.38;;;5.10;;
20956;SDS011;10637;47.970;7.830;2023-06-10T15:50:38;9.30;;;5.28;;
20956;SDS011;10637;47.970;7.830;2023-06-10T15:55:40;14.10;;;5.97;;
20956;SDS011;10637;47.970;7.830;2023-06-10T16:00:42;11.48;;;5.78;;
20956;SDS011;10637;47.970;7.830;2023-06-10T16:05:44;9.25;;;4.90;;
20956;SDS011;10637;47.970;7.830;2023-06-10T16:10:46;9.98;;;5.85;;
20956;SDS011;10637;47.970;7.830;2023-06-10T16:15:48;9.48;;;5.38;;
20956;SDS011;10637;47.970;7.830;2023-06-10T16:20:57;8.90;;;5.50;;
20956;SDS011;10637;47.970;7.830;2023-06-10T16:25:58;10.15;;;4.88;;
20956;SDS011;10637;47.970;7.830;2023-06-10T16:31:00;10.95;;;5.40;;
20956;SDS011;10637;47.970;7.830;2023-06-10T16:36:04;9.90;;;5.75;;
20956;SDS011;10637;47.970;7.830;2023-06-10T16:41:06;10.45;;;5.47;;
20956;SDS011;10637;47.970;7.830;2023-06-10T16:46:10;10.25;;;5.82;;
20956;SDS011;10637;47.970;7.830;2023-06-10T16:51:12;10.48;;;6.30;;
20956;SDS011;10637;47.970;7.830;2023-06-10T16:56:14;12.57;;;7.80;;
20956;SDS011;10637;47.970;7.830;2023-06-10T17:01:16;20.55;;;14.25;;
20956;SDS011;10637;47.970;7.830;2023-06-10T17:06:18;10.30;;;5.32;;
20956;SDS011;10637;47.970;7.830;2023-06-10T17:11:20;9.43;;;5.32;;
20956;SDS011;10637;47.970;7.830;2023-06-10T17:16:22;10.23;;;5.28;;
20956;SDS011;10637;47.970;7.830;2023-06-10T17:21:24;10.20;;;6.30;;
20956;SDS011;10637;47.970;7.830;2023-06-10T17:26:35;9.57;;;5.57;;
20956;SDS011;10637;47.970;7.830;2023-06-10T17:31:36;11.35;;;5.50;;
20956;SDS011;10637;47.970;7.830;2023-06-10T17:36:38;12.32;;;6.95;;
20956;SDS011;10637;47.970;7.830;2023-06-10T17:41:42;12.43;;;7.55;;
20956;SDS011;10637;47.970;7.830;2023-06-10T17:46:44;12.83;;;7.50;;
20956;SDS011;10637;47.970;7.830;2023-06-10T17:51:50;10.93;;;6.67;;
20956;SDS011;10637;47.970;7.830;2023-06-10T17:56:53;12.60;;;7.30;;
20956;SDS011;10637;47.970;7.830;2023-06-10T18:01:56;12.80;;;7.53;;
20956;SDS011;10637;47.970;7.830;2023-06-10T18:06:58;10.57;;;6.40;;
20956;SDS011;10637;47.970;7.830;2023-06-10T18:12:00;12.40;;;7.03;;
20956;SDS011;10637;47.970;7.830;2023-06-10T18:17:04;12.13;;;7.13;;
20956;SDS011;10637;47.970;7.830;2023-06-10T18:22:06;11.77;;;6.90;;
20956;SDS011;10637;47.970;7.830;2023-06-10T18:27:08;14.13;;;7.47;;
20956;SDS011;10637;47.970;7.830;2023-06-10T18:32:14;13.23;;;7.07;;
20956;SDS011;10637;47.970;7.830;2023-06-10T18:37:16;12.47;;;7.00;;
20956;SDS011;10637;47.970;7.830;2023-06-10T18:42:20;15.67;;;7.53;;
20956;SDS011;10637;47.970;7.830;2023-06-10T18:47:22;13.20;;;6.83;;
20956;SDS011;10637;47.970;7.830;2023-06-10T18:52:24;10.70;;;6.67;;
20956;SDS011;10637;47.970;7.830;2023-06-10T18:57:26;11.03;;;6.93;;
20956;SDS011;10637;47.970;7.830;2023-06-10T19:02:28;10.70;;;6.63;;
20956;SDS011;10637;47.970;7.830;2023-06-10T19:07:30;11.20;;;6.00;;
20956;SDS011;10637;47.970;7.830;2023-06-10T19:12:32;10.40;;;6.33;;
20956;SDS011;10637;47.970;7.830;2023-06-10T19:17:34;9.30;;;5.40;;
20956;SDS011;10637;47.970;7.830;2023-06-10T19:22:38;10.10;;;5.83;;
20956;SDS011;10637;47.970;7.830;2023-06-10T19:27:40;10.00;;;5.20;;
20956;SDS011;10637;47.970;7.830;2023-06-10T19:32:42;10.50;;;5.47;;
20956;SDS011;10637;47.970;7.830;2023-06-10T19:37:44;8.50;;;5.07;;
20956;SDS011;10637;47.970;7.830;2023-06-10T19:42:46;9.40;;;4.87;;
20956;SDS011;10637;47.970;7.830;2023-06-10T19:47:48;11.83;;;5.37;;
20956;SDS011;10637;47.970;7.830;2023-06-10T19:52:50;10.60;;;5.00;;
20956;SDS011;10637;47.970;7.830;2023-06-10T19:57:52;11.63;;;7.10;;
20956;SDS011;10637;47.970;7.830;2023-06-10T20:02:56;10.73;;;6.67;;
20956;SDS011;10637;47.970;7.830;2023-06-10T20:07:58;12.30;;;6.83;;
20956;SDS011;10637;47.970;7.830;2023-06-10T20:13:00;12.03;;;6.87;;
20956;SDS011;10637;47.970;7.830;2023-06-10T20:18:05;10.30;;;6.17;;
20956;SDS011;10637;47.970;7.830;2023-06-10T20:23:07;9.73;;;6.20;;
20956;SDS011;10637;47.970;7.830;2023-06-10T20:28:08;11.30;;;6.60;;
20956;SDS011;10637;47.970;7.830;2023-06-10T20:33:10;10.77;;;6.73;;
20956;SDS011;10637;47.970;7.830;2023-06-10T20:38:16;12.07;;;6.10;;
20956;SDS011;10637;47.970;7.830;2023-06-10T20:43:21;10.83;;;6.67;;
20956;SDS011;10637;47.970;7.830;2023-06-10T20:48:23;11.67;;;7.33;;
20956;SDS011;10637;47.970;7.830;2023-06-10T20:53:24;11.17;;;7.17;;
20956;SDS011;10637;47.970;7.830;2023-06-10T20:58:26;14.13;;;7.70;;
20956;SDS011;10637;47.970;7.830;2023-06-10T21:03:28;13.10;;;7.30;;
20956;SDS011;10637;47.970;7.830;2023-06-10T21:08:30;10.87;;;7.00;;
20956;SDS011;10637;47.970;7.830;2023-06-10T21:13:32;11.30;;;7.00;;
20956;SDS011;10637;47.970;7.830;2023-06-10T21:18:34;11.83;;;7.30;;
20956;SDS011;10637;47.970;7.830;2023-06-10T21:23:36;12.40;;;7.57;;
20956;SDS011;10637;47.970;7.830;2023-06-10T21:28:37;12.27;;;7.13;;
20956;SDS011;10637;47.970;7.830;2023-06-10T21:33:47;11.80;;;7.47;;
20956;SDS011;10637;47.970;7.830;2023-06-10T21:38:48;13.20;;;7.57;;
20956;SDS011;10637;47.970;7.830;2023-06-10T21:43:50;10.63;;;6.83;;
20956;SDS011;10637;47.970;7.830;2023-06-10T21:48:55;12.70;;;7.47;;
20956;SDS011;10637;47.970;7.830;2023-06-10T21:53:57;12.60;;;7.10;;
20956;SDS011;10637;47.970;7.830;2023-06-10T21:58:59;11.03;;;7.00;;
20956;SDS011;10637;47.970;7.830;2023-06-10T22:04:01;13.53;;;7.20;;
20956;SDS011;10637;47.970;7.830;2023-06-10T22:09:04;12.73;;;7.73;;
20956;SDS011;10637;47.970;7.830;2023-06-10T22:14:06;13.97;;;8.43;;
20956;SDS011;10637;47.970;7.830;2023-06-10T22:19:08;14.60;;;8.30;;
20956;SDS011;10637;47.970;7.830;2023-06-10T22:24:10;13.00;;;8.20;;
20956;SDS011;10637;47.970;7.830;2023-06-10T22:29:11;10.90;;;7.50;;
20956;SDS011;10637;47.970;7.830;2023-06-10T22:34:13;12.27;;;7.70;;
20956;SDS011;10637;47.970;7.830;2023-06-10T22:39:17;12.90;;;7.90;;
20956;SDS011;10637;47.970;7.830;2023-06-10T22:44:19;12.83;;;8.03;;
20956;SDS011;10637;47.970;7.830;2023-06-10T22:49:21;14.07;;;8.00;;
20956;SDS011;10637;47.970;7.830;2023-06-10T22:54:23;13.73;;;7.90;;
20956;SDS011;10637;47.970;7.830;2023-06-10T22:59:27;13.77;;;8.13;;
20956;SDS011;10637;47.970;7.830;2023-06-10T23:04:29;13.87;;;8.50;;
20956;SDS011;10637;47.970;7.830;2023-06-10T23:09:40;13.43;;;8.20;;
20956;SDS011;10637;47.970;7.830;2023-06-10T23:14:42;13.20;;;8.30;;
20956;SDS011;10637;47.970;7.830;2023-06-10T23:19:48;12.50;;;8.10;;
20956;SDS011;10637;47.970;7.830;2023-06-10T23:24:51;13.37;;;7.67;;
20956;SDS011;10637;47.970;7.830;2023-06-10T23:30:03;14.43;;;8.00;;
20956;SDS011;10637;47.970;7.830;2023-06-10T23:35:05;12.87;;;7.90;;
20956;SDS011;10637;47.970;7.830;2023-06-10T23:40:08;13.23;;;7.80;;
20956;SDS011;10637;47.970;7.830;2023-06-10T23:45:10;12.47;;;7.73;;
20956;SDS011;10637;47.970;7.830;2023-06-10T23:50:13;13.63;;;8.40;;
20956;SDS011;10637;47.970;7.830;2023-06-10T23:55:18;11.70;;;7.73;;
